createdAt,value
2022-11-14T00:00:56.144Z,2.70
2022-11-14T00:03:46.276Z,2.98
2022-11-14T00:06:36.510Z,2.85
2022-11-14T00:09:29.815Z,3.00
2022-11-14T00:12:22.421Z,3.17
2022-11-14T00:15:13.883Z,2.67
2022-11-14T00:18:04.201Z,3.02
2022-11-14T00:20:55.116Z,3.33
2022-11-14T00:23:45.189Z,3.35
2022-11-14T00:26:36.451Z,3.30
2022-11-14T00:29:26.757Z,3.05
2022-11-14T00:32:17.873Z,3.60
2022-11-14T00:35:09.537Z,3.98
2022-11-14T00:38:01.373Z,3.60
2022-11-14T00:40:51.794Z,4.10
2022-11-14T00:43:43.141Z,3.92
2022-11-14T00:46:35.494Z,4.20
2022-11-14T00:49:26.185Z,3.83
2022-11-14T00:52:17.452Z,4.25
2022-11-14T00:55:29.969Z,4.03
2022-11-14T00:58:20.279Z,4.42
2022-11-14T01:01:11.643Z,4.15
2022-11-14T01:04:03.293Z,4.40
2022-11-14T01:06:53.910Z,3.80
2022-11-14T01:09:45.602Z,3.90
2022-11-14T01:12:38.175Z,3.83
2022-11-14T01:15:28.630Z,3.80
2022-11-14T01:18:21.234Z,4.00
2022-11-14T01:21:13.605Z,3.80
2022-11-14T01:24:04.663Z,3.50
2022-11-14T01:26:59.223Z,3.37
2022-11-14T01:29:49.878Z,3.77
2022-11-14T01:32:40.991Z,3.87
2022-11-14T01:35:34.716Z,4.05
2022-11-14T01:38:27.519Z,3.52
2022-11-14T01:41:18.716Z,3.45
2022-11-14T01:44:15.723Z,3.75
2022-11-14T01:47:06.788Z,3.92
2022-11-14T01:50:00.683Z,3.37
2022-11-14T01:52:51.319Z,4.03
2022-11-14T01:55:41.790Z,3.98
2022-11-14T01:58:32.592Z,3.67
2022-11-14T02:01:23.312Z,4.03
2022-11-14T02:04:15.321Z,3.77
2022-11-14T02:07:07.706Z,3.60
2022-11-14T02:09:58.174Z,3.20
2022-11-14T02:12:49.146Z,3.87
2022-11-14T02:15:40.122Z,4.15
2022-11-14T02:18:32.180Z,3.83
2022-11-14T02:21:24.126Z,3.50
2022-11-14T02:24:15.281Z,3.72
2022-11-14T02:27:06.937Z,4.33
2022-11-14T02:30:06.888Z,3.92
2022-11-14T02:33:10.383Z,3.70
2022-11-14T02:35:49.319Z,3.75
2022-11-14T02:38:40.147Z,3.65
2022-11-14T02:41:30.999Z,3.60
2022-11-14T02:44:21.637Z,3.60
2022-11-14T02:47:12.076Z,3.55
2022-11-14T02:50:02.447Z,3.37
2022-11-14T02:52:54.038Z,3.30
2022-11-14T02:55:46.003Z,3.60
2022-11-14T02:58:38.021Z,3.60
2022-11-14T03:01:28.945Z,4.03
2022-11-14T03:04:19.643Z,3.52
2022-11-14T03:07:10.277Z,3.12
2022-11-14T03:10:01.120Z,3.45
2022-11-14T03:12:58.818Z,3.80
2022-11-14T03:15:49.076Z,3.30
2022-11-14T03:18:40.153Z,3.70
2022-11-14T03:21:30.955Z,3.70
2022-11-14T03:24:21.491Z,3.55
2022-11-14T03:27:12.623Z,3.22
2022-11-14T03:30:03.577Z,3.98
2022-11-14T03:32:55.148Z,3.72
2022-11-14T03:35:46.895Z,3.92
2022-11-14T03:38:38.135Z,4.35
2022-11-14T03:41:29.868Z,4.28
2022-11-14T03:44:21.367Z,4.00
2022-11-14T03:47:11.893Z,4.00
2022-11-14T03:50:03.467Z,4.00
2022-11-14T03:52:54.434Z,4.20
2022-11-14T03:55:49.276Z,4.20
2022-11-14T03:58:40.045Z,4.28
2022-11-14T04:01:30.646Z,4.42
2022-11-14T04:04:21.586Z,3.37
2022-11-14T04:07:12.194Z,3.50
2022-11-14T04:10:02.808Z,3.60
2022-11-14T04:12:54.402Z,3.27
2022-11-14T04:15:44.446Z,3.83
2022-11-14T04:18:35.480Z,3.52
2022-11-14T04:21:25.801Z,3.60
2022-11-14T04:24:16.662Z,3.77
2022-11-14T04:27:07.228Z,3.37
2022-11-14T04:29:58.454Z,3.12
2022-11-14T04:32:49.660Z,3.67
2022-11-14T04:35:41.662Z,3.27
2022-11-14T04:38:32.665Z,3.58
2022-11-14T04:41:23.522Z,3.47
2022-11-14T04:44:13.710Z,3.60
2022-11-14T04:47:03.932Z,3.60
2022-11-14T04:49:55.290Z,3.50
2022-11-14T04:52:46.153Z,3.33
2022-11-14T04:55:37.363Z,3.75
2022-11-14T04:58:28.746Z,3.60
2022-11-14T05:01:19.683Z,3.90
2022-11-14T05:04:10.022Z,3.58
2022-11-14T05:07:00.425Z,3.37
2022-11-14T05:09:51.056Z,4.25
2022-11-14T05:12:42.854Z,3.92
2022-11-14T05:15:34.979Z,4.33
2022-11-14T05:18:25.682Z,4.95
2022-11-14T05:21:16.896Z,4.80
2022-11-14T05:24:08.333Z,5.25
2022-11-14T05:26:59.745Z,5.53
2022-11-14T05:29:49.887Z,4.92
2022-11-14T05:32:40.753Z,5.60
2022-11-14T05:35:32.032Z,4.25
2022-11-14T05:38:23.262Z,4.65
2022-11-14T05:41:18.616Z,4.90
2022-11-14T05:44:10.073Z,4.08
2022-11-14T05:47:00.580Z,4.17
2022-11-14T05:49:50.940Z,4.78
2022-11-14T05:52:41.087Z,4.35
2022-11-14T05:55:32.581Z,4.03
2022-11-14T05:58:23.738Z,5.05
2022-11-14T06:01:19.982Z,4.53
2022-11-14T06:04:10.485Z,4.35
2022-11-14T06:07:00.735Z,4.62
2022-11-14T06:09:52.368Z,4.30
2022-11-14T06:12:42.825Z,3.85
2022-11-14T06:15:34.082Z,4.75
2022-11-14T06:18:24.737Z,3.67
2022-11-14T06:21:18.470Z,4.00
2022-11-14T06:24:09.300Z,3.70
2022-11-14T06:26:59.764Z,3.95
2022-11-14T06:29:51.608Z,4.08
2022-11-14T06:32:43.185Z,4.85
2022-11-14T06:35:36.658Z,3.85
2022-11-14T06:38:27.365Z,4.00
2022-11-14T06:41:21.539Z,4.40
2022-11-14T06:44:11.572Z,4.17
2022-11-14T06:47:02.023Z,3.80
2022-11-14T06:49:53.076Z,3.83
2022-11-14T06:52:44.459Z,3.83
2022-11-14T06:55:35.769Z,4.47
2022-11-14T06:58:35.367Z,4.53
2022-11-14T07:01:29.599Z,4.12
2022-11-14T07:04:19.988Z,3.90
2022-11-14T07:07:10.354Z,4.30
2022-11-14T07:10:02.761Z,4.62
2022-11-14T07:12:53.349Z,3.80
2022-11-14T07:15:55.811Z,4.30
2022-11-14T07:18:47.079Z,3.80
2022-11-14T07:21:38.194Z,3.70
2022-11-14T10:11:43.895Z,1.90
2022-11-14T10:14:52.709Z,1.92
2022-11-14T10:17:57.381Z,2.00
2022-11-14T10:20:57.034Z,1.70
2022-11-14T10:24:01.819Z,1.60
2022-11-14T10:27:07.421Z,1.60
2022-11-14T10:30:14.509Z,2.10
2022-11-14T10:33:31.122Z,1.87
2022-11-14T10:37:14.216Z,1.75
2022-11-14T10:40:23.598Z,2.05
2022-11-14T10:43:37.744Z,2.30
2022-11-14T10:46:31.900Z,1.70
2022-11-14T10:49:24.894Z,2.20
2022-11-14T10:52:18.008Z,1.82
2022-11-14T10:55:32.031Z,2.35
2022-11-14T10:58:15.097Z,1.60
2022-11-14T11:01:41.428Z,1.87
2022-11-14T11:04:37.038Z,1.60
2022-11-14T11:07:42.048Z,1.32
2022-11-14T11:10:51.252Z,1.70
2022-11-14T11:13:56.082Z,1.32
2022-11-14T11:16:48.406Z,1.32
2022-11-14T11:19:38.571Z,1.40
2022-11-14T11:22:38.389Z,1.10
2022-11-14T11:25:31.218Z,1.80
2022-11-14T11:28:24.741Z,1.50
2022-11-14T11:31:15.302Z,1.70
2022-11-14T11:34:08.807Z,1.75
2022-11-14T11:37:22.058Z,1.50
2022-11-14T11:40:21.355Z,1.80
2022-11-14T11:43:38.764Z,1.77
2022-11-14T11:47:01.304Z,2.10
2022-11-14T11:49:55.044Z,2.58
2022-11-14T11:53:02.707Z,2.33
2022-11-14T11:55:58.940Z,2.30
2022-11-14T11:59:00.498Z,2.45
2022-11-14T12:01:52.553Z,1.75
2022-11-14T12:04:44.450Z,1.70
2022-11-14T12:07:43.065Z,1.50
2022-11-14T12:10:38.478Z,1.55
2022-11-14T12:13:49.518Z,1.77
2022-11-14T12:17:22.697Z,1.70
2022-11-14T12:20:26.587Z,1.37
2022-11-14T12:23:24.737Z,2.02
2022-11-14T12:26:44.759Z,2.10
2022-11-14T12:29:52.395Z,2.42
2022-11-14T12:33:18.980Z,2.65
2022-11-14T12:36:11.993Z,2.40
2022-11-14T12:39:02.685Z,2.17
2022-11-14T12:42:02.211Z,2.02
2022-11-14T12:44:54.081Z,2.50
2022-11-14T12:47:49.709Z,2.20
2022-11-14T12:50:44.633Z,2.27
2022-11-14T12:53:40.629Z,2.20
2022-11-14T12:56:38.355Z,2.72
2022-11-14T12:59:33.771Z,2.55
2022-11-14T13:02:49.937Z,2.20
2022-11-14T13:05:46.957Z,2.27
2022-11-14T13:09:13.403Z,2.30
2022-11-14T13:12:48.980Z,2.30
2022-11-14T13:19:38.297Z,2.30
2022-11-14T13:22:45.777Z,2.20
2022-11-14T13:25:36.069Z,2.65
2022-11-14T13:28:48.697Z,2.95
2022-11-14T13:31:46.292Z,3.30
2022-11-14T13:34:54.733Z,4.10
2022-11-14T13:38:05.360Z,4.33
2022-11-14T13:41:04.149Z,3.60
2022-11-14T13:44:22.758Z,4.33
2022-11-14T13:47:38.140Z,5.10
2022-11-14T13:50:36.539Z,7.22
2022-11-14T13:53:30.090Z,7.40
2022-11-14T13:56:51.827Z,5.95
2022-11-14T14:00:18.479Z,4.83
2022-11-14T14:03:46.888Z,5.97
2022-11-14T14:06:53.537Z,5.62
2022-11-14T14:10:13.539Z,6.47
2022-11-14T14:13:28.729Z,6.20
2022-11-14T14:16:42.288Z,6.20
2022-11-14T14:19:59.592Z,7.25
2022-11-14T14:23:18.122Z,7.03
2022-11-14T14:26:34.699Z,6.30
2022-11-14T14:29:59.597Z,7.17
2022-11-14T14:33:12.690Z,5.72
2022-11-14T14:36:02.793Z,5.75
2022-11-14T14:39:12.242Z,6.08
2022-11-14T14:42:03.915Z,5.42
2022-11-14T14:44:56.112Z,5.75
2022-11-14T14:47:49.586Z,5.10
2022-11-14T14:50:44.321Z,4.92
2022-11-14T14:53:36.809Z,5.50
2022-11-14T14:56:27.917Z,4.90
2022-11-14T14:59:25.277Z,8.63
2022-11-14T15:02:21.578Z,7.30
2022-11-14T15:05:11.941Z,5.97
2022-11-14T15:08:03.062Z,5.42
2022-11-14T15:11:00.536Z,5.10
2022-11-14T15:13:53.744Z,4.70
2022-11-14T15:16:47.070Z,4.67
2022-11-14T15:19:47.184Z,4.42
2022-11-14T15:22:39.410Z,5.12
2022-11-14T15:25:30.459Z,5.40
2022-11-14T15:28:25.537Z,5.00
2022-11-14T15:31:24.694Z,4.70
2022-11-14T15:34:37.357Z,4.83
2022-11-14T15:37:28.546Z,4.67
2022-11-14T15:40:22.174Z,4.35
2022-11-14T15:43:47.787Z,4.83
2022-11-14T15:46:42.111Z,6.50
2022-11-14T15:49:33.571Z,5.05
2022-11-14T15:52:28.930Z,4.85
2022-11-14T15:55:22.714Z,4.60
2022-11-14T15:58:27.935Z,4.90
2022-11-14T16:01:06.372Z,5.40
2022-11-14T16:03:58.704Z,5.50
2022-11-14T16:06:49.353Z,5.65
2022-11-14T16:09:40.713Z,6.80
2022-11-14T16:12:31.321Z,6.45
2022-11-14T16:15:22.841Z,6.45
2022-11-14T16:18:13.917Z,6.40
2022-11-14T16:21:04.800Z,6.55
2022-11-14T16:23:55.870Z,6.30
2022-11-14T16:26:46.920Z,6.58
2022-11-14T16:29:39.084Z,7.45
2022-11-14T16:32:29.594Z,6.95
2022-11-14T16:35:26.134Z,6.25
2022-11-14T16:38:17.500Z,7.60
2022-11-14T16:41:09.793Z,6.72
2022-11-14T16:44:03.005Z,6.28
2022-11-14T16:46:53.603Z,7.00
2022-11-14T16:49:44.194Z,6.20
2022-11-14T16:52:35.762Z,6.97
2022-11-14T16:55:26.122Z,6.45
2022-11-14T16:58:16.699Z,7.67
2022-11-14T17:01:12.904Z,6.85
2022-11-14T17:04:02.952Z,7.50
2022-11-14T17:06:53.346Z,7.50
2022-11-14T17:09:43.894Z,7.30
2022-11-14T17:12:34.948Z,7.40
2022-11-14T17:15:26.119Z,6.95
2022-11-14T17:18:18.396Z,7.55
2022-11-14T17:41:15.691Z,5.72
2022-11-14T17:44:07.035Z,4.92
2022-11-14T17:46:57.832Z,5.65
2022-11-14T17:49:48.435Z,5.28
2022-11-14T17:52:55.204Z,6.20
2022-11-14T17:55:45.836Z,4.92
2022-11-14T17:58:36.743Z,4.78
2022-11-14T18:01:30.205Z,5.15
2022-11-14T18:04:21.224Z,4.85
2022-11-14T18:07:11.805Z,5.42
2022-11-14T18:10:02.286Z,5.35
2022-11-14T18:12:52.856Z,5.40
2022-11-14T18:15:44.821Z,4.65
2022-11-14T18:18:37.838Z,5.08
2022-11-14T18:21:28.881Z,5.10
2022-11-14T18:24:20.334Z,4.50
2022-11-14T18:27:12.170Z,4.90
2022-11-14T18:30:13.798Z,5.20
2022-11-14T18:32:57.040Z,5.12
2022-11-14T18:35:59.409Z,4.80
2022-11-14T18:38:49.823Z,4.70
2022-11-14T18:41:40.472Z,4.60
2022-11-14T18:44:30.641Z,4.55
2022-11-14T18:47:21.266Z,4.40
2022-11-14T18:50:11.793Z,4.62
2022-11-14T18:53:02.182Z,4.30
2022-11-14T18:55:53.353Z,4.67
2022-11-14T18:58:44.558Z,4.10
2022-11-14T19:01:35.332Z,4.65
2022-11-14T19:04:26.022Z,4.53
2022-11-14T19:07:19.388Z,3.83
2022-11-14T19:10:12.264Z,4.22
2022-11-14T19:13:02.853Z,4.17
2022-11-14T19:15:53.713Z,4.60
2022-11-14T19:18:45.457Z,4.15
2022-11-14T19:21:36.289Z,4.10
2022-11-14T19:24:26.687Z,3.95
2022-11-14T19:27:17.711Z,3.98
2022-11-14T19:30:09.671Z,4.70
2022-11-14T19:33:01.104Z,4.10
2022-11-14T19:35:51.373Z,4.45
2022-11-14T19:38:41.565Z,4.40
2022-11-14T19:41:32.616Z,4.37
2022-11-14T19:44:22.587Z,5.25
2022-11-14T19:47:13.508Z,5.42
2022-11-14T19:50:04.496Z,5.45
2022-11-14T19:52:54.810Z,6.22
2022-11-14T19:55:45.204Z,6.00
2022-11-14T19:58:41.356Z,5.97
2022-11-14T20:01:32.042Z,6.60
2022-11-14T20:04:22.805Z,5.97
2022-11-14T20:07:14.974Z,5.97
2022-11-14T20:10:07.099Z,6.20
2022-11-14T20:12:59.515Z,6.15
2022-11-14T20:15:50.219Z,6.67
2022-11-14T20:18:42.487Z,6.55
2022-11-14T20:21:34.740Z,6.10
2022-11-14T20:24:25.465Z,7.08
2022-11-14T20:27:17.439Z,7.37
2022-11-14T20:30:10.138Z,7.92
2022-11-14T20:33:02.620Z,8.55
2022-11-14T20:35:52.876Z,8.13
2022-11-14T20:38:44.909Z,7.47
2022-11-14T20:41:36.920Z,7.40
2022-11-14T20:44:27.827Z,7.72
2022-11-14T20:47:20.167Z,8.48
2022-11-14T20:50:10.805Z,8.03
2022-11-14T20:53:01.884Z,7.83
2022-11-14T20:55:55.213Z,8.08
2022-11-14T20:58:46.736Z,9.33
2022-11-14T21:01:43.221Z,8.70
2022-11-14T21:04:31.635Z,8.75
2022-11-14T21:07:22.932Z,9.10
2022-11-14T21:10:31.440Z,8.75
2022-11-14T21:13:41.253Z,10.05
2022-11-14T21:16:53.366Z,9.80
2022-11-14T21:19:45.138Z,9.55
2022-11-14T21:22:37.581Z,8.93
2022-11-14T21:25:31.397Z,9.33
2022-11-14T21:28:24.821Z,9.58
2022-11-14T21:31:20.504Z,10.28
2022-11-14T21:34:16.834Z,9.40
2022-11-14T21:37:08.256Z,9.53
2022-11-14T21:39:59.854Z,9.93
2022-11-14T21:42:50.825Z,10.20
2022-11-14T21:45:41.552Z,10.50
2022-11-14T21:48:41.696Z,8.90
2022-11-14T21:51:33.202Z,9.25
2022-11-14T21:54:23.618Z,8.00
2022-11-14T21:57:14.136Z,7.90
2022-11-14T22:00:04.671Z,8.80
2022-11-14T22:03:17.724Z,9.10
2022-11-14T22:06:06.147Z,8.18
2022-11-14T22:08:57.198Z,9.33
2022-11-14T22:11:48.744Z,10.30
2022-11-14T22:14:39.706Z,10.80
2022-11-14T22:17:30.765Z,9.35
2022-11-14T22:20:23.625Z,10.28
2022-11-14T22:23:14.974Z,9.80
2022-11-14T22:26:05.272Z,8.85
2022-11-14T22:28:58.529Z,9.40
2022-11-14T22:31:51.962Z,9.05
2022-11-14T22:34:42.812Z,10.25
2022-11-14T22:37:37.293Z,9.40
2022-11-14T22:40:28.097Z,10.75
2022-11-14T22:43:20.873Z,10.65
2022-11-14T22:46:16.541Z,11.33
2022-11-14T22:49:07.894Z,12.23
2022-11-14T22:51:58.782Z,12.90
2022-11-14T22:54:49.113Z,13.43
2022-11-14T22:57:39.504Z,13.50
2022-11-14T23:00:29.848Z,13.88
2022-11-14T23:03:21.504Z,15.40
2022-11-14T23:06:14.417Z,15.38
2022-11-14T23:09:05.046Z,15.20
2022-11-14T23:11:55.126Z,14.70
2022-11-14T23:14:45.968Z,16.00
2022-11-14T23:17:36.570Z,16.80
2022-11-14T23:20:28.394Z,16.42
2022-11-14T23:23:19.192Z,15.65
2022-11-14T23:26:12.518Z,15.15
2022-11-14T23:29:04.388Z,16.17
2022-11-14T23:31:54.623Z,15.55
2022-11-14T23:34:44.843Z,12.37
2022-11-14T23:37:37.681Z,12.30
2022-11-14T23:40:28.039Z,11.30
2022-11-14T23:43:19.146Z,10.25
2022-11-14T23:46:09.875Z,9.18
2022-11-14T23:49:00.283Z,8.68
2022-11-14T23:51:50.478Z,8.40
2022-11-14T23:54:41.362Z,8.40
2022-11-14T23:57:34.297Z,8.15
